Time;durP1;ratioP1;P1;durP2;ratioP2;P2;SDS_P1;SDS_P2;PMS_P1;PMS_P2;Temp;Humidity;BMP_temperature;BMP_pressure;BME280_temperature;BME280_humidity;BME280_pressure;Samples;Min_cycle;Max_cycle;Signal;HPM_P1;HPM_P2
2021/05/29 00:02:25;;;;;;;13.85;8.68;;;10.30;90.70;;;;;;5054729;28;20059;-54
2021/05/29 00:04:50;;;;;;;14.80;9.00;;;10.20;90.70;;;;;;5059283;28;20381;-56
2021/05/29 00:07:17;;;;;;;14.23;9.13;;;10.20;90.80;;;;;;5053541;28;20041;-56
2021/05/29 00:09:43;;;;;;;15.00;8.20;;;10.20;90.80;;;;;;5038924;28;20119;-50
2021/05/29 00:12:11;;;;;;;12.68;7.80;;;10.10;90.70;;;;;;5053242;28;20144;-54
2021/05/29 00:14:38;;;;;;;11.40;7.28;;;10.10;90.70;;;;;;5058906;28;20150;-54
2021/05/29 00:17:05;;;;;;;10.32;7.05;;;10.10;90.70;;;;;;5061003;28;20109;-54
2021/05/29 00:19:31;;;;;;;10.35;6.65;;;10.00;90.60;;;;;;5048531;28;20041;-57
2021/05/29 00:21:57;;;;;;;12.30;8.13;;;9.90;90.60;;;;;;5056983;28;20079;-54
2021/05/29 00:24:23;;;;;;;11.00;7.28;;;9.80;90.60;;;;;;5052845;28;20071;-52
2021/05/29 00:26:49;;;;;;;11.35;7.53;;;9.70;90.60;;;;;;5062834;28;20052;-56
2021/05/29 00:29:15;;;;;;;14.10;8.00;;;9.70;90.70;;;;;;5063544;28;20416;-53
2021/05/29 00:31:42;;;;;;;13.48;8.15;;;9.70;90.70;;;;;;5061877;28;20045;-54
2021/05/29 00:34:08;;;;;;;12.55;7.38;;;9.60;90.70;;;;;;5052353;28;20036;-52
2021/05/29 00:36:35;;;;;;;8.45;5.25;;;9.60;90.70;;;;;;5053557;28;20082;-52
2021/05/29 00:39:01;;;;;;;8.10;5.30;;;9.50;90.60;;;;;;5059450;28;20044;-54
2021/05/29 00:41:27;;;;;;;7.50;4.40;;;9.50;90.80;;;;;;5055764;28;20049;-53
2021/05/29 00:43:53;;;;;;;7.22;4.65;;;9.40;90.50;;;;;;5052427;28;20052;-53
2021/05/29 00:46:18;;;;;;;6.28;4.18;;;9.30;90.50;;;;;;5065669;28;20068;-55
2021/05/29 00:48:44;;;;;;;4.75;3.60;;;9.30;90.70;;;;;;5053752;28;20049;-53
2021/05/29 00:51:10;;;;;;;5.35;3.35;;;9.20;90.70;;;;;;5019746;28;20045;-50
2021/05/29 00:53:37;;;;;;;7.03;4.40;;;9.10;90.60;;;;;;5051841;28;20041;-56
2021/05/29 00:56:04;;;;;;;13.75;7.32;;;9.00;90.60;;;;;;5062294;28;20041;-55
2021/05/29 00:58:31;;;;;;;14.05;7.57;;;9.00;90.80;;;;;;5061439;28;20089;-54
2021/05/29 01:00:57;;;;;;;16.27;8.20;;;9.00;90.90;;;;;;5057562;28;20033;-56
2021/05/29 01:03:23;;;;;;;14.93;8.45;;;9.00;90.90;;;;;;5064659;28;20045;-56
2021/05/29 01:05:49;;;;;;;12.13;8.10;;;9.00;90.90;;;;;;5046800;28;20052;-57
2021/05/29 01:08:15;;;;;;;14.52;7.30;;;9.00;90.90;;;;;;5054742;28;20040;-57
2021/05/29 01:10:41;;;;;;;14.18;7.88;;;8.90;91.00;;;;;;5052975;28;20041;-56
2021/05/29 01:13:09;;;;;;;13.23;7.10;;;8.90;91.00;;;;;;5047266;28;20538;-55
2021/05/29 01:15:42;;;;;;;13.23;8.00;;;8.90;90.90;;;;;;5063502;28;20041;-55
2021/05/29 01:18:11;;;;;;;13.05;8.10;;;8.90;91.00;;;;;;5054685;28;20815;-56
2021/05/29 01:20:38;;;;;;;11.18;8.00;;;8.80;91.00;;;;;;5062798;28;20394;-54
2021/05/29 01:23:06;;;;;;;12.75;7.40;;;8.80;90.90;;;;;;5068348;28;20048;-57
2021/05/29 01:25:36;;;;;;;12.00;7.35;;;8.80;90.90;;;;;;5063441;28;20033;-56
2021/05/29 01:28:04;;;;;;;13.32;7.82;;;8.80;90.80;;;;;;5054322;28;20051;-56
2021/05/29 01:30:33;;;;;;;13.93;8.60;;;8.70;90.90;;;;;;5059103;28;20041;-57
2021/05/29 01:33:00;;;;;;;12.77;7.75;;;8.70;90.90;;;;;;5051652;28;20041;-58
2021/05/29 01:35:28;;;;;;;12.85;7.75;;;8.80;90.80;;;;;;5053467;28;20083;-57
2021/05/29 01:37:56;;;;;;;13.50;7.97;;;8.70;90.80;;;;;;5050958;28;20037;-58
2021/05/29 01:40:22;;;;;;;12.07;6.50;;;8.60;90.90;;;;;;5051688;28;20051;-57
2021/05/29 01:42:48;;;;;;;8.23;4.95;;;8.60;90.90;;;;;;5057373;28;20044;-57
2021/05/29 01:45:14;;;;;;;7.45;4.60;;;8.50;90.80;;;;;;5052128;28;20072;-58
2021/05/29 01:47:42;;;;;;;4.45;3.22;;;8.50;90.70;;;;;;5054611;28;20057;-57
2021/05/29 01:50:14;;;;;;;4.38;3.45;;;8.50;90.70;;;;;;5071733;28;20071;-58
2021/05/29 01:52:47;;;;;;;4.50;3.30;;;8.40;90.70;;;;;;5038552;28;20416;-57
2021/05/29 01:55:14;;;;;;;7.45;4.65;;;8.20;90.70;;;;;;5035020;28;20036;-56
2021/05/29 01:57:40;;;;;;;4.97;3.33;;;8.20;90.80;;;;;;5060286;28;20043;-57
2021/05/29 02:00:08;;;;;;;11.32;4.60;;;8.20;90.90;;;;;;5033886;28;20045;-57
2021/05/29 02:02:35;;;;;;;9.18;5.47;;;8.10;90.90;;;;;;5040100;28;20077;-58
2021/05/29 02:05:13;;;;;;;8.32;6.35;;;8.10;90.90;;;;;;5050942;28;20037;-58
2021/05/29 02:07:39;;;;;;;13.20;8.10;;;8.00;91.10;;;;;;5050517;28;20032;-57
2021/05/29 02:10:12;;;;;;;13.48;8.30;;;8.10;91.40;;;;;;5051318;28;20048;-56
2021/05/29 02:12:43;;;;;;;17.42;7.90;;;8.10;91.40;;;;;;5033612;28;20417;-57
2021/05/29 02:15:12;;;;;;;14.17;8.07;;;8.20;91.50;;;;;;5063737;28;20086;-57
2021/05/29 02:17:38;;;;;;;12.23;7.60;;;8.20;91.50;;;;;;5043545;28;20074;-57
2021/05/29 02:20:05;;;;;;;10.55;6.35;;;8.20;91.40;;;;;;5060156;28;20052;-56
2021/05/29 02:22:32;;;;;;;8.40;5.75;;;8.20;91.30;;;;;;5063862;28;20040;-58
2021/05/29 02:24:58;;;;;;;10.80;6.22;;;8.20;91.10;;;;;;5032998;28;20052;-58
2021/05/29 02:27:23;;;;;;;8.32;5.60;;;8.10;91.00;;;;;;5050529;28;20029;-57
2021/05/29 02:29:49;;;;;;;10.23;5.30;;;8.10;91.00;;;;;;5052320;28;20049;-55
2021/05/29 02:32:15;;;;;;;8.70;5.53;;;8.00;90.80;;;;;;5057542;28;20263;-58
2021/05/29 02:34:41;;;;;;;10.15;5.45;;;7.90;90.70;;;;;;5049773;28;20094;-57
2021/05/29 02:37:08;;;;;;;9.52;6.22;;;7.90;90.70;;;;;;5038833;28;20433;-57
2021/05/29 02:39:34;;;;;;;10.23;6.95;;;7.90;90.80;;;;;;5053536;28;20687;-57
2021/05/29 02:42:00;;;;;;;11.23;7.95;;;7.80;90.90;;;;;;5046808;28;20037;-57
2021/05/29 02:44:26;;;;;;;10.73;6.97;;;7.70;91.10;;;;;;5051173;28;20044;-58
2021/05/29 02:46:52;;;;;;;10.43;7.00;;;7.80;91.00;;;;;;5052816;28;20036;-57
2021/05/29 02:49:18;;;;;;;11.50;8.32;;;7.70;90.90;;;;;;5065813;28;20393;-55
2021/05/29 02:51:44;;;;;;;15.73;8.20;;;7.70;90.90;;;;;;5060612;28;20052;-57
2021/05/29 02:54:10;;;;;;;10.93;7.60;;;7.60;90.90;;;;;;5064533;28;20416;-56
2021/05/29 02:56:36;;;;;;;11.43;7.28;;;7.60;91.00;;;;;;5060318;28;20040;-58
2021/05/29 02:59:02;;;;;;;8.88;6.50;;;7.50;91.20;;;;;;5010788;28;20040;-57
2021/05/29 03:01:28;;;;;;;12.73;7.88;;;7.50;91.30;;;;;;5059935;28;20056;-56
2021/05/29 03:03:54;;;;;;;10.85;6.97;;;7.50;91.30;;;;;;5049701;28;20513;-58
2021/05/29 03:06:19;;;;;;;8.95;6.10;;;7.40;91.30;;;;;;5050438;28;20515;-57
2021/05/29 03:08:45;;;;;;;10.60;6.80;;;7.40;91.30;;;;;;5054353;28;20580;-58
2021/05/29 03:11:11;;;;;;;12.10;7.25;;;7.40;91.30;;;;;;5049487;28;20493;-56
2021/05/29 03:13:37;;;;;;;14.48;8.73;;;7.40;91.40;;;;;;5058807;28;20055;-57
2021/05/29 03:16:03;;;;;;;14.90;9.50;;;7.40;91.50;;;;;;5058706;28;20115;-57
2021/05/29 03:18:30;;;;;;;16.40;10.63;;;7.50;91.80;;;;;;5050741;28;20052;-57
2021/05/29 03:20:57;;;;;;;15.80;10.63;;;7.60;92.00;;;;;;5067414;28;20045;-55
2021/05/29 03:23:24;;;;;;;13.95;7.75;;;7.70;91.90;;;;;;5066894;28;20052;-57
2021/05/29 03:25:51;;;;;;;13.68;6.88;;;7.70;91.80;;;;;;5061398;28;20040;-54
2021/05/29 03:28:17;;;;;;;13.90;8.00;;;7.60;91.60;;;;;;5054388;28;20080;-57
2021/05/29 03:30:43;;;;;;;15.30;10.27;;;7.60;91.50;;;;;;5066561;28;20064;-53
2021/05/29 03:33:11;;;;;;;15.15;10.40;;;7.70;91.80;;;;;;5062960;28;20075;-55
2021/05/29 03:35:37;;;;;;;14.90;9.63;;;7.70;91.80;;;;;;5046487;28;20691;-55
2021/05/29 03:38:03;;;;;;;15.15;10.23;;;7.70;91.80;;;;;;5059830;28;20093;-54
2021/05/29 03:40:29;;;;;;;17.60;10.88;;;7.80;91.90;;;;;;5042470;28;20045;-56
2021/05/29 03:42:55;;;;;;;15.40;10.48;;;7.80;91.80;;;;;;5067965;28;20604;-54
2021/05/29 03:45:21;;;;;;;19.85;11.95;;;7.80;91.80;;;;;;5064324;28;20329;-56
2021/05/29 03:47:47;;;;;;;20.98;14.23;;;7.90;92.00;;;;;;5055523;28;20500;-57
2021/05/29 03:50:16;;;;;;;19.23;13.40;;;7.90;92.30;;;;;;5045599;28;20078;-57
2021/05/29 03:52:42;;;;;;;21.58;12.40;;;8.00;92.10;;;;;;5053388;28;20045;-55
2021/05/29 03:55:10;;;;;;;18.33;11.73;;;8.00;92.00;;;;;;5057711;28;20044;-55
2021/05/29 03:57:35;;;;;;;11.77;8.63;;;8.10;92.10;;;;;;5041124;28;20119;-55
2021/05/29 04:00:03;;;;;;;13.75;8.68;;;8.10;91.90;;;;;;5055503;28;20149;-57
2021/05/29 04:02:29;;;;;;;11.52;8.85;;;8.00;91.60;;;;;;5061899;28;20061;-55
2021/05/29 04:04:54;;;;;;;11.23;8.50;;;8.00;91.50;;;;;;5065046;28;20476;-55
2021/05/29 04:07:21;;;;;;;15.38;9.82;;;8.00;91.50;;;;;;5060161;28;20037;-56
2021/05/29 04:09:47;;;;;;;13.30;8.90;;;7.90;91.40;;;;;;5054554;28;20087;-56
2021/05/29 04:12:13;;;;;;;11.35;7.20;;;7.90;91.40;;;;;;5035659;28;20045;-57
2021/05/29 04:14:39;;;;;;;10.43;7.57;;;7.80;91.30;;;;;;5059514;28;20045;-56
2021/05/29 04:17:04;;;;;;;12.32;8.13;;;7.80;91.30;;;;;;5053454;28;20043;-58
2021/05/29 04:19:30;;;;;;;11.65;8.23;;;7.80;91.40;;;;;;5053357;28;20041;-58
2021/05/29 04:21:56;;;;;;;13.82;9.75;;;7.80;91.50;;;;;;5060556;28;20048;-56
2021/05/29 04:24:21;;;;;;;12.52;8.35;;;7.80;91.70;;;;;;5067458;28;20060;-59
2021/05/29 04:26:47;;;;;;;11.77;7.70;;;7.90;91.90;;;;;;5067281;28;20126;-57
2021/05/29 04:29:13;;;;;;;12.55;8.30;;;7.90;91.70;;;;;;5052878;28;20500;-58
2021/05/29 04:31:38;;;;;;;12.98;7.85;;;8.00;91.70;;;;;;5048716;28;20037;-57
2021/05/29 04:34:04;;;;;;;15.93;8.18;;;8.00;91.70;;;;;;5043039;28;20071;-58
2021/05/29 04:36:31;;;;;;;12.63;8.80;;;8.00;91.70;;;;;;5052829;28;20267;-56
2021/05/29 04:38:57;;;;;;;12.07;8.00;;;8.00;92.00;;;;;;5045595;28;20056;-54
2021/05/29 04:41:23;;;;;;;19.80;9.55;;;8.10;92.00;;;;;;5060071;28;20044;-55
2021/05/29 04:43:50;;;;;;;19.90;10.88;;;8.10;92.30;;;;;;5026238;28;20040;-54
2021/05/29 04:46:15;;;;;;;19.83;12.77;;;8.30;92.80;;;;;;5061521;28;20224;-56
2021/05/29 04:48:41;;;;;;;24.27;15.38;;;8.40;92.70;;;;;;5052642;28;20128;-56
2021/05/29 04:51:13;;;;;;;25.48;16.60;;;8.50;92.80;;;;;;5052098;28;20404;-55
2021/05/29 04:53:44;;;;;;;26.48;16.40;;;8.60;92.80;;;;;;5052304;28;20112;-54
2021/05/29 04:56:15;;;;;;;29.40;16.90;;;8.60;92.60;;;;;;5052020;28;20095;-55
2021/05/29 04:58:41;;;;;;;21.92;12.40;;;8.70;92.80;;;;;;5055906;28;20044;-54
2021/05/29 05:01:08;;;;;;;20.35;12.60;;;8.80;93.00;;;;;;5053518;28;20506;-54
2021/05/29 05:03:34;;;;;;;25.23;14.52;;;8.90;92.70;;;;;;5041382;28;20561;-55
2021/05/29 05:06:00;;;;;;;29.30;16.92;;;8.90;92.60;;;;;;5056563;28;20439;-54
2021/05/29 05:08:26;;;;;;;27.50;16.77;;;9.00;92.60;;;;;;5049720;28;20032;-54
2021/05/29 05:10:52;;;;;;;30.40;16.15;;;9.10;92.70;;;;;;5052954;28;20068;-54
2021/05/29 05:13:18;;;;;;;28.75;16.00;;;9.10;92.70;;;;;;5051704;28;20508;-55
2021/05/29 05:15:44;;;;;;;27.48;16.23;;;9.10;92.70;;;;;;5034044;28;20519;-54
2021/05/29 05:18:10;;;;;;;27.48;16.98;;;9.20;92.60;;;;;;5052340;28;20048;-56
2021/05/29 05:20:36;;;;;;;33.92;17.90;;;9.30;92.80;;;;;;5050652;28;20055;-55
2021/05/29 05:23:04;;;;;;;31.60;18.70;;;9.30;92.70;;;;;;5051839;28;20111;-54
2021/05/29 05:25:30;;;;;;;32.60;17.85;;;9.40;92.80;;;;;;5051184;28;20057;-55
2021/05/29 05:27:56;;;;;;;31.38;20.17;;;9.40;92.90;;;;;;5056700;28;20456;-56
2021/05/29 05:30:22;;;;;;;34.60;20.38;;;9.50;93.00;;;;;;5041797;28;20041;-54
2021/05/29 05:32:48;;;;;;;32.95;20.98;;;9.60;92.90;;;;;;5064544;28;20055;-53
2021/05/29 05:35:17;;;;;;;34.13;21.83;;;9.70;92.90;;;;;;5050961;28;20037;-54
2021/05/29 05:37:44;;;;;;;37.72;22.88;;;9.80;92.90;;;;;;5060616;28;20041;-56
2021/05/29 05:40:11;;;;;;;34.70;21.38;;;9.90;93.00;;;;;;5033331;28;20477;-56
2021/05/29 05:42:37;;;;;;;36.25;20.50;;;9.90;92.90;;;;;;5051571;28;20508;-53
2021/05/29 05:45:06;;;;;;;33.78;20.60;;;10.00;92.80;;;;;;5062023;28;20044;-54
2021/05/29 05:47:33;;;;;;;33.60;20.90;;;10.10;92.80;;;;;;5056891;28;20037;-53
2021/05/29 05:49:59;;;;;;;34.97;19.85;;;10.10;92.80;;;;;;5048794;28;20461;-56
2021/05/29 05:52:25;;;;;;;32.88;21.05;;;10.20;92.80;;;;;;5047259;28;20408;-54
2021/05/29 05:54:50;;;;;;;33.92;19.85;;;10.30;93.10;;;;;;5059862;28;20037;-54
2021/05/29 05:57:16;;;;;;;29.58;18.27;;;10.40;92.80;;;;;;5059082;28;20054;-54
2021/05/29 05:59:42;;;;;;;33.75;18.83;;;10.40;92.80;;;;;;5055483;28;20036;-54
2021/05/29 06:02:08;;;;;;;27.08;17.17;;;10.50;92.60;;;;;;5067159;28;20396;-53
2021/05/29 06:04:34;;;;;;;28.40;16.70;;;10.50;92.60;;;;;;5055966;28;20076;-57
2021/05/29 06:07:01;;;;;;;29.77;16.98;;;10.60;92.50;;;;;;5033731;28;20037;-55
2021/05/29 06:09:28;;;;;;;34.53;18.05;;;10.60;92.30;;;;;;5054131;28;20052;-54
2021/05/29 06:11:54;;;;;;;30.25;18.33;;;10.70;92.40;;;;;;5052554;28;20485;-54
2021/05/29 06:19:49;;;;;;;24.67;16.55;;;10.90;92.20;;;;;;5067465;28;20055;-52
2021/05/29 06:22:14;;;;;;;24.92;16.42;;;11.00;92.20;;;;;;5054288;28;20041;-53
2021/05/29 06:24:40;;;;;;;31.67;17.17;;;11.10;92.10;;;;;;5052735;28;20087;-55
2021/05/29 06:27:06;;;;;;;28.38;16.73;;;11.20;92.20;;;;;;5065433;28;20467;-55
2021/05/29 06:29:33;;;;;;;35.10;16.88;;;11.20;92.10;;;;;;5055415;28;20451;-54
2021/05/29 06:31:59;;;;;;;28.38;16.45;;;11.30;92.20;;;;;;5036365;28;20041;-54
2021/05/29 06:34:25;;;;;;;25.48;15.63;;;11.40;92.10;;;;;;5053301;28;20476;-55
2021/05/29 06:36:52;;;;;;;28.17;16.38;;;11.50;92.10;;;;;;5022449;28;20434;-56
2021/05/29 06:39:18;;;;;;;29.35;16.02;;;11.50;91.90;;;;;;5058576;28;20098;-58
2021/05/29 06:41:44;;;;;;;27.63;17.63;;;11.60;91.90;;;;;;5054980;28;20041;-56
2021/05/29 06:44:12;;;;;;;24.90;16.92;;;11.70;91.80;;;;;;5059015;28;20040;-57
2021/05/29 06:46:40;;;;;;;26.63;17.63;;;11.70;91.80;;;;;;5026998;28;20094;-56
2021/05/29 06:49:05;;;;;;;29.00;17.70;;;11.80;91.90;;;;;;5061381;28;20125;-57
2021/05/29 06:59:45;;;;;;;26.00;17.00;;;12.00;91.70;;;;;;5045029;28;20037;-56
2021/05/29 07:02:11;;;;;;;26.00;16.90;;;12.00;91.70;;;;;;5047108;28;20087;-56
2021/05/29 07:04:37;;;;;;;27.88;18.30;;;12.10;91.70;;;;;;5072608;28;20098;-56
2021/05/29 07:07:03;;;;;;;27.00;17.95;;;12.10;91.60;;;;;;5075310;28;20055;-56
2021/05/29 07:09:29;;;;;;;26.40;17.20;;;12.20;91.60;;;;;;5028290;28;20452;-57
2021/05/29 07:11:55;;;;;;;29.80;16.67;;;12.20;91.50;;;;;;5050194;28;20039;-57
2021/05/29 07:14:20;;;;;;;25.65;16.77;;;12.20;91.50;;;;;;5056150;28;20072;-55
2021/05/29 07:16:50;;;;;;;24.75;16.25;;;12.20;91.40;;;;;;5058256;28;20116;-57
2021/05/29 07:19:16;;;;;;;30.60;17.35;;;12.30;91.30;;;;;;5061661;28;20059;-54
2021/05/29 07:21:41;;;;;;;25.50;16.85;;;12.40;91.30;;;;;;5060307;28;20032;-54
2021/05/29 07:24:07;;;;;;;23.40;16.02;;;12.40;91.30;;;;;;5063471;28;20037;-55
2021/05/29 07:26:33;;;;;;;24.58;15.40;;;12.40;91.10;;;;;;5065215;28;20124;-55
2021/05/29 07:28:59;;;;;;;26.48;16.45;;;12.50;91.00;;;;;;5062726;28;20044;-57
2021/05/29 07:31:25;;;;;;;25.30;16.58;;;12.50;90.90;;;;;;5065478;28;20056;-54
2021/05/29 07:33:54;;;;;;;24.13;15.43;;;12.60;90.90;;;;;;5059179;28;20032;-53
2021/05/29 07:36:20;;;;;;;19.95;15.10;;;12.60;90.80;;;;;;5058275;28;20033;-56
2021/05/29 07:38:46;;;;;;;25.08;15.98;;;12.60;90.70;;;;;;5048413;28;20508;-56
2021/05/29 07:41:12;;;;;;;25.90;17.50;;;12.50;90.60;;;;;;5058863;28;20045;-56
2021/05/29 07:43:38;;;;;;;24.90;15.65;;;12.60;90.50;;;;;;5055058;28;20067;-57
2021/05/29 07:46:04;;;;;;;26.50;15.88;;;12.50;90.40;;;;;;5031742;28;20086;-55
2021/05/29 07:48:32;;;;;;;20.85;14.98;;;12.60;90.10;;;;;;5057979;28;20107;-55
2021/05/29 07:51:01;;;;;;;21.67;15.20;;;12.60;90.10;;;;;;5066284;28;20200;-52
2021/05/29 07:53:30;;;;;;;24.00;14.57;;;12.60;90.10;;;;;;5043499;28;20044;-56
2021/05/29 07:55:57;;;;;;;20.45;13.50;;;12.60;89.90;;;;;;5016969;28;20111;-53
2021/05/29 07:58:24;;;;;;;16.33;12.13;;;12.60;89.00;;;;;;5040874;28;20055;-56
2021/05/29 08:00:51;;;;;;;18.40;12.85;;;12.60;88.60;;;;;;5057041;28;20040;-55
2021/05/29 08:03:20;;;;;;;19.98;13.57;;;12.60;88.70;;;;;;5021058;28;20040;-54
2021/05/29 08:05:47;;;;;;;18.50;12.48;;;12.60;88.70;;;;;;5073300;28;20033;-54
2021/05/29 08:08:13;;;;;;;19.48;12.48;;;12.70;88.70;;;;;;5061680;28;20185;-56
2021/05/29 08:10:40;;;;;;;16.42;12.05;;;12.70;88.50;;;;;;5064233;28;20540;-55
2021/05/29 08:13:06;;;;;;;18.67;11.82;;;12.70;88.70;;;;;;5053550;28;20036;-55
2021/05/29 08:15:31;;;;;;;16.40;10.40;;;12.70;88.50;;;;;;5066177;28;20041;-55
2021/05/29 08:17:57;;;;;;;17.42;11.75;;;12.60;87.50;;;;;;5062912;28;20036;-53
2021/05/29 08:20:23;;;;;;;15.70;11.80;;;12.60;86.80;;;;;;5058963;28;20036;-55
2021/05/29 08:22:49;;;;;;;18.38;11.35;;;12.70;87.10;;;;;;5066072;28;20047;-54
2021/05/29 08:25:16;;;;;;;17.02;10.88;;;12.70;87.30;;;;;;5028982;28;20082;-55
2021/05/29 08:27:44;;;;;;;15.07;10.77;;;12.80;85.90;;;;;;5067891;28;20049;-55
2021/05/29 08:30:10;;;;;;;15.23;10.45;;;12.80;86.30;;;;;;5070494;28;20048;-52
2021/05/29 08:32:37;;;;;;;14.75;9.95;;;12.80;85.60;;;;;;5036475;28;20108;-56
2021/05/29 08:35:05;;;;;;;16.90;11.10;;;12.70;85.50;;;;;;5056436;28;20064;-56
2021/05/29 08:37:31;;;;;;;16.80;11.85;;;12.70;85.80;;;;;;5056046;28;20048;-57
2021/05/29 08:39:56;;;;;;;16.30;11.75;;;12.70;86.10;;;;;;5057773;28;20492;-57
2021/05/29 08:42:23;;;;;;;15.85;11.65;;;12.70;86.20;;;;;;5059741;28;20449;-57
2021/05/29 08:44:50;;;;;;;17.17;11.52;;;12.80;86.80;;;;;;5032876;28;20045;-57
2021/05/29 08:47:18;;;;;;;19.52;11.73;;;12.80;86.30;;;;;;5056540;28;20052;-56
2021/05/29 08:49:44;;;;;;;17.00;10.73;;;12.90;86.30;;;;;;5055903;28;20037;-55
2021/05/29 08:52:10;;;;;;;15.15;10.02;;;13.00;86.20;;;;;;5053742;28;20044;-55
2021/05/29 08:54:35;;;;;;;16.67;10.25;;;13.00;85.80;;;;;;5038133;28;20497;-56
2021/05/29 08:57:02;;;;;;;13.60;9.23;;;13.10;85.30;;;;;;5036024;28;20040;-55
2021/05/29 08:59:28;;;;;;;13.77;9.98;;;13.10;85.00;;;;;;5053393;28;20326;-56
2021/05/29 09:01:55;;;;;;;17.92;9.65;;;13.30;85.00;;;;;;5055846;28;20409;-56
2021/05/29 09:04:20;;;;;;;14.70;10.02;;;13.40;84.30;;;;;;5057463;28;20044;-57
2021/05/29 09:06:46;;;;;;;13.38;8.80;;;13.40;84.20;;;;;;5045432;28;20037;-57
2021/05/29 09:09:18;;;;;;;11.80;8.50;;;13.40;83.80;;;;;;5064704;28;20531;-57
2021/05/29 09:11:57;;;;;;;13.40;9.33;;;13.40;82.70;;;;;;5052498;28;20045;-58
2021/05/29 09:14:24;;;;;;;13.75;8.85;;;13.50;80.80;;;;;;5060885;28;20029;-57
2021/05/29 09:17:23;;;;;;;14.00;9.13;;;13.40;80.60;;;;;;5046534;28;20048;-58
2021/05/29 09:20:01;;;;;;;14.18;10.10;;;13.30;80.90;;;;;;5059259;28;20041;-59
2021/05/29 09:22:52;;;;;;;14.70;9.10;;;13.40;81.60;;;;;;5042710;28;20048;-58
2021/05/29 09:25:23;;;;;;;16.65;10.07;;;13.40;81.10;;;;;;5058982;28;20087;-58
2021/05/29 09:28:05;;;;;;;14.38;9.48;;;13.40;80.80;;;;;;5029453;28;20117;-58
2021/05/29 09:30:41;;;;;;;15.18;9.68;;;13.40;80.00;;;;;;5030817;28;20036;-58
2021/05/29 09:33:20;;;;;;;14.70;9.48;;;13.40;80.10;;;;;;5062598;28;20127;-55
2021/05/29 09:36:10;;;;;;;13.02;9.18;;;13.50;79.70;;;;;;5060578;28;20456;-57
2021/05/29 09:38:38;;;;;;;12.98;9.30;;;13.60;79.80;;;;;;5028633;28;20040;-56
2021/05/29 09:41:04;;;;;;;14.35;9.93;;;13.80;79.70;;;;;;5054709;28;20045;-57
2021/05/29 09:43:51;;;;;;;12.45;8.27;;;13.90;78.50;;;;;;5055302;28;20535;-57
2021/05/29 09:46:17;;;;;;;13.85;8.27;;;14.20;74.70;;;;;;5045141;28;20167;-58
2021/05/29 09:48:53;;;;;;;13.25;8.95;;;14.30;75.50;;;;;;5060082;28;20115;-57
2021/05/29 09:51:20;;;;;;;12.48;8.93;;;14.30;74.60;;;;;;5059772;28;20041;-55
2021/05/29 09:53:48;;;;;;;12.20;8.70;;;14.30;75.20;;;;;;5063516;28;20404;-57
2021/05/29 09:56:40;;;;;;;13.52;8.88;;;14.30;76.60;;;;;;5062823;28;20123;-58
2021/05/29 09:59:08;;;;;;;13.15;8.98;;;14.30;77.70;;;;;;5058654;28;20033;-57
2021/05/29 10:01:44;;;;;;;12.73;8.63;;;14.30;77.40;;;;;;5061801;28;20044;-58
2021/05/29 10:04:26;;;;;;;11.75;8.52;;;14.30;76.60;;;;;;5055249;28;20507;-57
2021/05/29 10:06:57;;;;;;;12.82;8.27;;;14.30;77.50;;;;;;5034179;28;20123;-57
2021/05/29 10:09:23;;;;;;;13.27;8.38;;;14.40;77.00;;;;;;5063582;28;20045;-58
2021/05/29 10:11:49;;;;;;;12.77;8.48;;;14.40;76.30;;;;;;5061454;28;20037;-59
2021/05/29 10:14:15;;;;;;;10.95;7.88;;;14.40;75.20;;;;;;5056553;28;20049;-59
2021/05/29 10:16:41;;;;;;;12.38;8.70;;;14.60;75.70;;;;;;5059109;28;20028;-58
2021/05/29 10:19:09;;;;;;;14.02;8.18;;;14.90;74.10;;;;;;5051882;28;20032;-58
2021/05/29 10:21:36;;;;;;;11.88;7.95;;;15.10;72.40;;;;;;5050936;28;20058;-58
2021/05/29 10:24:04;;;;;;;13.52;8.25;;;15.30;73.90;;;;;;5052237;28;20031;-56
2021/05/29 10:26:30;;;;;;;13.18;7.95;;;15.70;74.30;;;;;;5059707;28;20040;-58
2021/05/29 10:28:57;;;;;;;12.43;7.57;;;15.80;73.90;;;;;;5061293;28;20060;-58
2021/05/29 10:31:29;;;;;;;12.48;7.75;;;15.90;73.20;;;;;;5041480;28;20129;-58
2021/05/29 10:33:55;;;;;;;11.63;7.80;;;15.80;72.80;;;;;;5052860;28;20513;-59
2021/05/29 10:36:44;;;;;;;11.65;7.30;;;15.70;72.30;;;;;;5059075;28;20036;-58
2021/05/29 10:39:11;;;;;;;11.10;6.95;;;15.70;68.60;;;;;;5055484;28;20091;-59
2021/05/29 10:41:53;;;;;;;10.73;7.00;;;15.50;70.40;;;;;;5054094;28;20064;-57
2021/05/29 10:44:37;;;;;;;10.70;6.78;;;15.40;69.90;;;;;;5056236;28;20090;-57
2021/05/29 10:47:11;;;;;;;9.07;6.72;;;15.60;69.10;;;;;;5037270;28;20048;-58
2021/05/29 10:49:49;;;;;;;11.68;6.90;;;15.70;69.30;;;;;;5036479;28;20171;-58
2021/05/29 10:52:30;;;;;;;12.02;6.50;;;15.80;69.70;;;;;;5058172;28;20500;-58
2021/05/29 10:55:23;;;;;;;9.80;6.63;;;16.20;69.00;;;;;;5057825;28;20051;-58
2021/05/29 10:57:54;;;;;;;;;;;16.40;67.80;;;;;;5037121;28;20045;-58
2021/05/29 11:00:35;;;;;;;9.80;6.72;;;16.50;68.70;;;;;;5059304;28;20273;-58
2021/05/29 11:03:26;;;;;;;9.60;6.40;;;16.60;67.10;;;;;;5059763;28;20032;-58
2021/05/29 11:05:57;;;;;;;9.55;6.95;;;16.80;64.70;;;;;;5053509;28;20037;-58
2021/05/29 11:08:44;;;;;;;10.73;6.95;;;16.90;65.00;;;;;;5052341;28;20041;-58
2021/05/29 11:14:07;;;;;;;8.13;6.25;;;17.10;64.50;;;;;;5052750;28;20037;-58
2021/05/29 11:16:45;;;;;;;9.55;7.00;;;16.90;65.60;;;;;;5057650;28;20048;-59
2021/05/29 11:19:16;;;;;;;11.23;7.50;;;16.70;66.30;;;;;;5051452;28;20048;-59
2021/05/29 11:22:18;;;;;;;12.43;7.32;;;16.60;68.40;;;;;;5050606;28;20078;-56
2021/05/29 11:24:49;;;;;;;10.40;7.10;;;16.40;69.60;;;;;;5056223;28;20041;-57
2021/05/29 11:27:19;;;;;;;11.13;7.70;;;16.40;69.20;;;;;;5055748;28;20041;-59
2021/05/29 11:30:11;;;;;;;9.35;6.70;;;16.40;68.20;;;;;;5051186;28;20111;-59
2021/05/29 11:32:59;;;;;;;9.82;7.78;;;16.40;69.30;;;;;;5057606;28;20044;-59
2021/05/29 11:35:30;;;;;;;10.75;7.30;;;16.30;69.80;;;;;;5039742;28;20087;-59
2021/05/29 11:38:22;;;;;;;11.77;6.80;;;16.40;69.20;;;;;;5060327;28;20033;-58
2021/05/29 11:40:50;;;;;;;9.40;7.00;;;16.50;67.80;;;;;;5051106;28;20045;-58
2021/05/29 11:43:38;;;;;;;10.35;6.63;;;16.60;68.30;;;;;;5053541;28;20051;-59
2021/05/29 11:46:06;;;;;;;10.10;6.88;;;16.50;67.80;;;;;;5053652;28;20114;-58
2021/05/29 11:48:36;;;;;;;9.73;6.90;;;16.50;69.00;;;;;;5061565;28;20048;-58
2021/05/29 11:51:14;;;;;;;9.90;6.30;;;16.50;68.60;;;;;;5043058;28;20143;-59
2021/05/29 11:53:44;;;;;;;11.52;7.10;;;16.60;67.40;;;;;;5058536;28;20248;-59
2021/05/29 11:56:11;;;;;;;10.60;6.72;;;16.60;68.20;;;;;;5063604;28;20066;-58
2021/05/29 11:58:44;;;;;;;11.45;6.70;;;16.50;69.00;;;;;;5026869;28;20072;-59
2021/05/29 12:01:11;;;;;;;12.40;6.68;;;16.40;69.30;;;;;;5041423;28;20094;-55
2021/05/29 12:03:38;;;;;;;9.98;6.38;;;16.40;69.30;;;;;;5054115;28;20386;-55
2021/05/29 12:06:04;;;;;;;9.65;6.22;;;16.60;70.80;;;;;;5052499;28;20044;-55
2021/05/29 12:08:30;;;;;;;9.43;5.78;;;16.90;68.70;;;;;;5040513;28;21436;-55
2021/05/29 12:10:56;;;;;;;9.10;5.90;;;16.90;67.10;;;;;;5055267;28;20131;-54
2021/05/29 12:13:29;;;;;;;8.65;5.85;;;17.10;63.30;;;;;;5055523;28;20043;-55
2021/05/29 12:16:01;;;;;;;8.52;5.63;;;17.00;64.00;;;;;;5056100;28;20044;-55
2021/05/29 12:18:37;;;;;;;11.57;6.70;;;16.70;65.50;;;;;;5054010;28;20044;-55
2021/05/29 12:21:06;;;;;;;10.40;6.85;;;16.60;65.80;;;;;;5038098;28;20036;-56
2021/05/29 12:23:53;;;;;;;11.85;6.53;;;16.50;67.10;;;;;;5024330;28;20052;-55
2021/05/29 12:26:20;;;;;;;9.35;6.20;;;16.50;67.30;;;;;;5054729;28;20045;-56
2021/05/29 12:28:47;;;;;;;9.43;6.30;;;16.60;68.70;;;;;;5054331;28;20068;-57
2021/05/29 12:31:13;;;;;;;11.75;6.10;;;16.70;69.10;;;;;;5040699;28;20110;-57
2021/05/29 12:33:39;;;;;;;10.70;6.10;;;16.70;69.20;;;;;;5058488;28;20040;-57
2021/05/29 12:36:11;;;;;;;8.75;5.30;;;16.60;68.70;;;;;;5035814;28;20045;-57
2021/05/29 12:38:51;;;;;;;12.10;5.60;;;16.90;64.30;;;;;;5059317;28;20044;-58
2021/05/29 12:41:22;;;;;;;9.95;5.82;;;16.70;65.50;;;;;;5044611;28;20279;-59
2021/05/29 12:44:04;;;;;;;9.30;5.07;;;16.60;66.70;;;;;;5038558;28;20044;-57
2021/05/29 12:46:30;;;;;;;8.40;5.22;;;16.70;66.40;;;;;;5053023;28;20094;-59
2021/05/29 12:49:15;;;;;;;9.40;4.95;;;16.90;65.40;;;;;;5038044;28;20556;-57
2021/05/29 12:51:48;;;;;;;9.93;5.45;;;17.10;64.10;;;;;;5054958;28;20041;-58
2021/05/29 12:54:15;;;;;;;8.60;5.28;;;17.30;65.40;;;;;;5044188;28;20032;-57
2021/05/29 12:56:54;;;;;;;8.38;4.60;;;17.60;63.00;;;;;;5052180;28;20048;-56
2021/05/29 12:59:28;;;;;;;8.93;5.07;;;17.80;63.50;;;;;;5052202;28;20516;-57
2021/05/29 13:10:07;;;;;;;8.30;4.68;;;18.20;59.20;;;;;;5052037;28;20040;-57
2021/05/29 13:12:36;;;;;;;9.52;4.80;;;18.20;61.70;;;;;;5055080;28;20503;-56
2021/05/29 13:15:16;;;;;;;7.47;4.80;;;18.10;59.20;;;;;;5051885;28;20056;-57